Time;durP1;ratioP1;P1;durP2;ratioP2;P2;SDS_P1;SDS_P2;PMS_P1;PMS_P2;Temp;Humidity;BMP_temperature;BMP_pressure;BME280_temperature;BME280_humidity;BME280_pressure;Samples;Min_cycle;Max_cycle;Signal;HPM_P1;HPM_P2
2021/09/24 00:02:01;;;;;;;13.55;1.63;;;;;;;;;;5065029;28;20403;-71
2021/09/24 00:04:28;;;;;;;10.85;1.58;;;;;;;;;;5072768;28;20044;-71
2021/09/24 00:06:54;;;;;;;13.63;1.88;;;;;;;;;;5064748;28;20464;-71
2021/09/24 00:09:20;;;;;;;15.10;1.77;;;;;;;;;;5067297;28;20045;-71
2021/09/24 00:11:47;;;;;;;15.05;1.52;;;;;;;;;;5069141;28;20083;-71
2021/09/24 00:14:13;;;;;;;17.80;1.85;;;;;;;;;;5074051;28;20059;-71
2021/09/24 00:16:39;;;;;;;16.55;2.50;;;;;;;;;;5070122;28;20508;-71
2021/09/24 00:19:05;;;;;;;11.90;1.80;;;;;;;;;;5065284;28;20036;-71
2021/09/24 00:21:32;;;;;;;22.17;2.03;;;;;;;;;;5074629;28;20075;-71
2021/09/24 00:23:58;;;;;;;16.45;2.13;;;;;;;;;;5055776;28;20094;-71
2021/09/24 00:26:24;;;;;;;16.20;1.55;;;;;;;;;;5068112;28;20122;-71
2021/09/24 00:28:50;;;;;;;16.48;2.15;;;;;;;;;;5068615;28;20056;-71
2021/09/24 00:31:16;;;;;;;19.85;2.00;;;;;;;;;;5069917;28;20044;-71
2021/09/24 00:33:42;;;;;;;11.82;1.70;;;;;;;;;;5051863;28;20045;-71
2021/09/24 00:36:08;;;;;;;9.40;2.03;;;;;;;;;;5070985;28;20029;-71
2021/09/24 00:38:40;;;;;;;15.68;1.85;;;;;;;;;;5070221;28;20032;-71
2021/09/24 00:41:07;;;;;;;14.77;2.03;;;;;;;;;;5071497;28;20056;-71
2021/09/24 00:43:33;;;;;;;15.32;2.38;;;;;;;;;;5073278;28;20060;-71
2021/09/24 00:45:59;;;;;;;16.88;2.08;;;;;;;;;;5060565;28;20407;-71
2021/09/24 00:48:25;;;;;;;15.85;2.28;;;;;;;;;;5075915;28;20048;-71
2021/09/24 00:50:51;;;;;;;14.80;1.83;;;;;;;;;;5074097;28;20113;-71
2021/09/24 00:53:17;;;;;;;13.35;1.77;;;;;;;;;;5075907;28;20123;-71
2021/09/24 00:55:44;;;;;;;14.13;1.65;;;;;;;;;;5062762;28;21701;-71
2021/09/24 00:58:10;;;;;;;16.58;1.92;;;;;;;;;;5077146;28;20044;-71
2021/09/24 01:00:36;;;;;;;12.55;1.67;;;;;;;;;;5068150;28;20115;-71
2021/09/24 01:03:02;;;;;;;14.18;1.85;;;;;;;;;;5079023;28;20050;-71
2021/09/24 01:05:28;;;;;;;15.48;1.83;;;;;;;;;;5066817;28;20036;-71
2021/09/24 01:07:54;;;;;;;17.58;2.92;;;;;;;;;;5077875;28;20546;-71
2021/09/24 01:10:21;;;;;;;15.43;2.00;;;;;;;;;;5067425;28;20419;-71
2021/09/24 01:12:47;;;;;;;17.73;2.13;;;;;;;;;;5059601;28;20508;-71
2021/09/24 01:15:14;;;;;;;12.88;1.60;;;;;;;;;;5072748;28;20110;-71
2021/09/24 01:17:41;;;;;;;10.98;2.05;;;;;;;;;;5072490;28;20475;-71
2021/09/24 01:20:08;;;;;;;17.83;2.05;;;;;;;;;;5066006;28;20667;-71
2021/09/24 01:22:34;;;;;;;15.15;2.00;;;;;;;;;;5075115;28;20032;-71
2021/09/24 01:25:00;;;;;;;15.73;1.88;;;;;;;;;;5060840;28;20044;-71
2021/09/24 01:27:26;;;;;;;14.25;1.88;;;;;;;;;;5072426;28;20424;-71
2021/09/24 01:29:55;;;;;;;14.77;1.73;;;;;;;;;;5077751;28;20097;-71
2021/09/24 01:32:22;;;;;;;13.57;1.90;;;;;;;;;;5073546;28;20040;-71
2021/09/24 01:34:48;;;;;;;16.17;2.25;;;;;;;;;;5077383;28;20039;-71
2021/09/24 01:37:14;;;;;;;19.60;2.03;;;;;;;;;;5066418;28;20039;-71
2021/09/24 01:39:40;;;;;;;15.85;1.67;;;;;;;;;;5073852;28;20040;-71
2021/09/24 01:42:06;;;;;;;16.95;2.03;;;;;;;;;;5074488;28;20161;-71
2021/09/24 01:44:33;;;;;;;13.73;1.70;;;;;;;;;;5072797;28;20044;-70
2021/09/24 01:46:59;;;;;;;15.00;1.80;;;;;;;;;;5064939;28;20067;-71
2021/09/24 01:49:25;;;;;;;17.92;2.42;;;;;;;;;;5072477;28;20473;-71
2021/09/24 01:51:51;;;;;;;14.18;2.47;;;;;;;;;;5072944;28;20080;-71
2021/09/24 01:54:19;;;;;;;16.52;2.08;;;;;;;;;;5073337;28;20505;-71
2021/09/24 01:56:45;;;;;;;15.48;2.10;;;;;;;;;;5055379;28;20040;-71
2021/09/24 01:59:11;;;;;;;14.43;2.38;;;;;;;;;;5074568;28;20032;-71
2021/09/24 02:01:37;;;;;;;14.70;2.15;;;;;;;;;;5069326;28;20094;-71
2021/09/24 02:04:03;;;;;;;16.25;1.95;;;;;;;;;;5077452;28;20047;-71
2021/09/24 02:06:30;;;;;;;16.35;2.30;;;;;;;;;;5064485;28;20052;-72
2021/09/24 02:08:56;;;;;;;14.73;2.13;;;;;;;;;;5082252;28;20043;-71
2021/09/24 02:11:22;;;;;;;15.77;2.25;;;;;;;;;;5077503;28;20500;-71
2021/09/24 02:13:48;;;;;;;13.35;2.00;;;;;;;;;;5071640;28;20032;-71
2021/09/24 02:16:14;;;;;;;13.63;2.40;;;;;;;;;;5073155;28;20044;-72
2021/09/24 02:18:41;;;;;;;14.10;2.13;;;;;;;;;;5065300;28;20032;-72
2021/09/24 02:21:07;;;;;;;15.05;2.50;;;;;;;;;;5076090;28;20044;-72
2021/09/24 02:23:34;;;;;;;11.45;2.13;;;;;;;;;;5067317;28;20040;-72
2021/09/24 02:26:00;;;;;;;12.68;2.05;;;;;;;;;;5080255;28;20671;-72
2021/09/24 02:28:26;;;;;;;15.50;1.85;;;;;;;;;;5070924;28;20128;-71
2021/09/24 02:30:52;;;;;;;15.00;2.33;;;;;;;;;;5059669;28;20052;-71
2021/09/24 02:33:18;;;;;;;15.85;2.30;;;;;;;;;;5067343;28;20047;-69
2021/09/24 02:35:44;;;;;;;12.57;2.30;;;;;;;;;;5079576;28;20476;-69
2021/09/24 02:38:11;;;;;;;15.35;1.88;;;;;;;;;;5066248;28;20039;-69
2021/09/24 02:40:37;;;;;;;16.90;2.42;;;;;;;;;;5072967;28;20590;-69
2021/09/24 02:43:03;;;;;;;13.93;2.35;;;;;;;;;;5046889;28;20044;-71
2021/09/24 02:45:29;;;;;;;10.57;2.42;;;;;;;;;;5081836;28;20040;-71
2021/09/24 02:47:55;;;;;;;16.25;2.20;;;;;;;;;;5071209;28;20098;-71
2021/09/24 02:50:21;;;;;;;17.98;2.30;;;;;;;;;;5071887;28;20400;-71
2021/09/24 02:52:48;;;;;;;11.02;1.98;;;;;;;;;;5078507;28;20053;-71
2021/09/24 02:55:15;;;;;;;13.27;2.10;;;;;;;;;;5056121;28;20457;-71
2021/09/24 02:57:41;;;;;;;12.40;1.90;;;;;;;;;;5067354;28;20048;-71
2021/09/24 03:00:08;;;;;;;12.75;2.15;;;;;;;;;;5068681;28;20036;-71
2021/09/24 03:02:35;;;;;;;16.30;2.72;;;;;;;;;;5074836;28;20044;-71
2021/09/24 03:05:05;;;;;;;12.95;2.17;;;;;;;;;;5057700;28;20467;-71
2021/09/24 03:07:31;;;;;;;14.07;2.38;;;;;;;;;;5074232;28;20105;-71
2021/09/24 03:09:57;;;;;;;14.55;2.00;;;;;;;;;;5064143;28;20076;-71
2021/09/24 03:12:23;;;;;;;14.90;2.47;;;;;;;;;;5075941;28;20449;-71
2021/09/24 03:14:49;;;;;;;13.23;2.50;;;;;;;;;;5072755;28;20070;-71
2021/09/24 03:17:15;;;;;;;12.75;2.33;;;;;;;;;;5070690;28;20033;-71
2021/09/24 03:19:42;;;;;;;21.75;2.95;;;;;;;;;;5050206;28;20378;-71
2021/09/24 03:22:08;;;;;;;11.80;2.70;;;;;;;;;;5075077;28;20055;-70
2021/09/24 03:24:36;;;;;;;13.25;2.58;;;;;;;;;;5071180;28;20032;-70
2021/09/24 03:27:02;;;;;;;13.48;2.90;;;;;;;;;;5072999;28;20049;-70
2021/09/24 03:29:28;;;;;;;13.90;2.70;;;;;;;;;;5074317;28;20476;-70
2021/09/24 03:31:54;;;;;;;9.15;2.35;;;;;;;;;;5069566;28;20071;-70
2021/09/24 03:34:21;;;;;;;10.77;2.47;;;;;;;;;;5071064;28;20052;-70
2021/09/24 03:36:47;;;;;;;14.10;2.80;;;;;;;;;;5067299;28;20043;-70
2021/09/24 03:39:13;;;;;;;17.42;2.60;;;;;;;;;;5071215;28;20437;-70
2021/09/24 03:41:43;;;;;;;11.32;2.28;;;;;;;;;;5064162;28;20048;-71
2021/09/24 03:44:09;;;;;;;11.18;2.65;;;;;;;;;;5055411;28;20036;-71
2021/09/24 03:46:35;;;;;;;15.05;2.42;;;;;;;;;;5067138;28;20072;-71
2021/09/24 03:49:04;;;;;;;16.02;2.30;;;;;;;;;;5078065;28;20097;-71
2021/09/24 03:51:30;;;;;;;16.10;2.20;;;;;;;;;;5063725;28;20416;-71
2021/09/24 03:53:56;;;;;;;13.60;2.90;;;;;;;;;;5070694;28;20036;-71
2021/09/24 03:56:23;;;;;;;12.82;2.47;;;;;;;;;;5069921;28;20040;-71
2021/09/24 03:58:49;;;;;;;13.20;2.95;;;;;;;;;;5072110;28;20097;-71
2021/09/24 04:01:15;;;;;;;18.23;2.65;;;;;;;;;;5063746;28;20477;-71
2021/09/24 04:03:43;;;;;;;17.63;2.85;;;;;;;;;;5070504;28;20133;-71
2021/09/24 04:06:09;;;;;;;12.85;2.65;;;;;;;;;;5066579;28;20080;-71
2021/09/24 04:08:36;;;;;;;12.23;2.20;;;;;;;;;;5068555;28;20052;-71
2021/09/24 04:11:02;;;;;;;14.68;3.03;;;;;;;;;;5073687;28;20032;-71
2021/09/24 04:13:28;;;;;;;12.35;2.92;;;;;;;;;;5068677;28;20147;-71
2021/09/24 04:15:54;;;;;;;11.70;2.45;;;;;;;;;;5075955;28;20094;-71
2021/09/24 04:18:20;;;;;;;11.85;2.83;;;;;;;;;;5067526;28;20043;-71
2021/09/24 04:20:47;;;;;;;15.15;2.45;;;;;;;;;;5074022;28;20111;-71
2021/09/24 04:23:13;;;;;;;13.60;2.35;;;;;;;;;;5075151;28;20044;-71
2021/09/24 04:25:40;;;;;;;9.95;2.10;;;;;;;;;;5072640;28;20051;-71
2021/09/24 04:28:06;;;;;;;11.35;1.98;;;;;;;;;;5069641;28;20046;-71
2021/09/24 04:30:32;;;;;;;14.77;2.78;;;;;;;;;;5073812;28;20044;-71
2021/09/24 04:32:58;;;;;;;13.77;2.30;;;;;;;;;;5069375;28;20098;-71
2021/09/24 04:35:24;;;;;;;17.30;2.67;;;;;;;;;;5075340;28;20443;-71
2021/09/24 04:37:53;;;;;;;12.13;2.03;;;;;;;;;;5071594;28;20078;-71
2021/09/24 04:40:19;;;;;;;14.27;2.50;;;;;;;;;;5078370;28;20591;-71
2021/09/24 04:42:45;;;;;;;9.55;1.98;;;;;;;;;;5072676;28;20040;-71
2021/09/24 04:45:12;;;;;;;12.05;2.33;;;;;;;;;;5078293;28;20918;-69
2021/09/24 04:47:38;;;;;;;14.02;3.03;;;;;;;;;;5076830;28;20351;-71
2021/09/24 04:50:05;;;;;;;13.70;2.30;;;;;;;;;;5071414;28;20044;-70
2021/09/24 04:52:31;;;;;;;15.80;2.83;;;;;;;;;;5076553;28;20052;-71
2021/09/24 04:54:57;;;;;;;9.45;2.22;;;;;;;;;;5069275;28;20604;-71
2021/09/24 04:57:23;;;;;;;9.50;2.33;;;;;;;;;;5073474;28;20048;-71
2021/09/24 04:59:49;;;;;;;11.38;2.67;;;;;;;;;;5070355;28;20775;-71
2021/09/24 05:02:15;;;;;;;12.30;2.50;;;;;;;;;;5072070;28;20090;-71
2021/09/24 05:04:42;;;;;;;14.52;2.92;;;;;;;;;;5078465;28;20127;-71
2021/09/24 05:07:08;;;;;;;13.40;2.80;;;;;;;;;;5075348;28;20535;-71
2021/09/24 05:09:34;;;;;;;12.80;2.65;;;;;;;;;;5068743;28;20052;-71
2021/09/24 05:12:00;;;;;;;12.07;2.92;;;;;;;;;;5070956;28;20040;-71
2021/09/24 05:14:26;;;;;;;13.80;3.03;;;;;;;;;;5066942;28;20319;-71
2021/09/24 05:16:52;;;;;;;14.75;3.35;;;;;;;;;;5057409;28;20436;-71
2021/09/24 05:19:18;;;;;;;14.57;3.38;;;;;;;;;;5049753;28;20056;-71
2021/09/24 05:21:44;;;;;;;10.52;3.00;;;;;;;;;;5071692;28;20041;-71
2021/09/24 05:24:10;;;;;;;14.77;2.97;;;;;;;;;;5070600;28;20082;-71
2021/09/24 05:26:37;;;;;;;17.23;3.20;;;;;;;;;;5072773;28;20119;-71
2021/09/24 05:29:03;;;;;;;12.40;3.28;;;;;;;;;;5072567;28;20304;-71
2021/09/24 05:31:30;;;;;;;13.45;3.25;;;;;;;;;;5066005;28;20047;-71
2021/09/24 05:33:56;;;;;;;19.23;3.70;;;;;;;;;;5073588;28;20052;-71
2021/09/24 05:36:22;;;;;;;13.55;3.00;;;;;;;;;;5067095;28;20040;-71
2021/09/24 05:38:48;;;;;;;18.33;4.10;;;;;;;;;;5078332;28;20047;-71
2021/09/24 05:41:14;;;;;;;60.88;46.00;;;;;;;;;;5067882;28;20123;-71
2021/09/24 05:43:40;;;;;;;16.70;4.18;;;;;;;;;;5082642;28;20071;-71
2021/09/24 05:46:09;;;;;;;15.60;4.15;;;;;;;;;;5066720;28;20191;-71
2021/09/24 05:48:35;;;;;;;15.25;3.40;;;;;;;;;;5070776;28;20507;-71
2021/09/24 05:51:01;;;;;;;12.55;3.35;;;;;;;;;;5065583;28;20045;-71
2021/09/24 05:53:27;;;;;;;19.50;3.95;;;;;;;;;;5069662;28;20052;-71
2021/09/24 05:55:55;;;;;;;16.85;4.57;;;;;;;;;;5076819;28;20076;-71
2021/09/24 05:58:21;;;;;;;17.23;4.18;;;;;;;;;;5073195;28;20067;-70
2021/09/24 06:00:47;;;;;;;14.10;3.97;;;;;;;;;;5066544;28;20721;-71
2021/09/24 06:03:14;;;;;;;15.48;3.47;;;;;;;;;;5079529;28;20036;-71
2021/09/24 06:05:40;;;;;;;20.85;4.60;;;;;;;;;;5078582;28;20122;-71
2021/09/24 06:08:12;;;;;;;17.40;4.05;;;;;;;;;;5072121;28;20084;-71
2021/09/24 06:10:39;;;;;;;15.88;3.58;;;;;;;;;;5058561;28;20083;-75
2021/09/24 06:13:06;;;;;;;17.65;3.85;;;;;;;;;;5065353;28;20036;-72
2021/09/24 06:15:32;;;;;;;13.45;3.58;;;;;;;;;;5077294;28;20071;-71
2021/09/24 06:18:02;;;;;;;12.65;3.88;;;;;;;;;;5069948;28;20048;-72
2021/09/24 06:20:28;;;;;;;12.48;3.42;;;;;;;;;;5072534;28;20044;-72
2021/09/24 06:22:54;;;;;;;9.93;4.05;;;;;;;;;;5069576;28;20444;-71
2021/09/24 06:25:23;;;;;;;12.95;3.47;;;;;;;;;;5072121;28;20093;-71
2021/09/24 06:27:50;;;;;;;13.95;3.35;;;;;;;;;;5047078;28;20126;-71
2021/09/24 06:30:18;;;;;;;13.98;3.90;;;;;;;;;;5080750;28;20052;-71
2021/09/24 06:32:44;;;;;;;16.55;4.53;;;;;;;;;;5068660;28;20037;-71
2021/09/24 06:35:12;;;;;;;12.10;4.32;;;;;;;;;;5070445;28;20047;-71
2021/09/24 06:37:38;;;;;;;13.35;4.07;;;;;;;;;;5064758;28;20580;-71
2021/09/24 06:40:05;;;;;;;10.95;4.10;;;;;;;;;;5070888;28;20037;-71
2021/09/24 06:42:32;;;;;;;14.23;3.92;;;;;;;;;;5064545;28;20960;-71
2021/09/24 06:44:58;;;;;;;11.77;4.18;;;;;;;;;;5081862;28;20044;-71
2021/09/24 06:47:24;;;;;;;12.57;3.97;;;;;;;;;;5068240;28;20097;-71
2021/09/24 06:49:50;;;;;;;9.05;3.63;;;;;;;;;;5071203;28;20489;-71
2021/09/24 06:52:17;;;;;;;14.05;4.20;;;;;;;;;;5077106;28;20101;-71
2021/09/24 06:54:43;;;;;;;10.45;3.47;;;;;;;;;;5079325;28;20074;-71
2021/09/24 06:57:09;;;;;;;13.95;3.90;;;;;;;;;;5072416;28;20519;-71
2021/09/24 06:59:35;;;;;;;12.73;3.70;;;;;;;;;;5064257;28;20370;-71
2021/09/24 07:02:02;;;;;;;13.05;3.80;;;;;;;;;;5070796;28;20064;-71
2021/09/24 07:04:28;;;;;;;19.30;5.00;;;;;;;;;;5065920;28;20036;-71
2021/09/24 07:06:54;;;;;;;16.45;4.65;;;;;;;;;;5069794;28;20196;-71
2021/09/24 07:09:20;;;;;;;10.45;4.28;;;;;;;;;;5063813;28;20048;-71
2021/09/24 07:11:50;;;;;;;11.73;4.00;;;;;;;;;;5068272;28;20389;-71
2021/09/24 07:14:18;;;;;;;9.80;3.70;;;;;;;;;;5053299;28;20507;-71
2021/09/24 07:16:44;;;;;;;12.68;3.65;;;;;;;;;;5070417;28;20070;-71
2021/09/24 07:19:11;;;;;;;11.02;3.83;;;;;;;;;;5064203;28;20574;-71
2021/09/24 07:21:37;;;;;;;9.82;3.75;;;;;;;;;;5084410;28;20572;-71
2021/09/24 07:24:04;;;;;;;15.25;4.15;;;;;;;;;;5066294;28;20508;-71
2021/09/24 07:26:30;;;;;;;11.75;4.05;;;;;;;;;;5075034;28;20058;-71
2021/09/24 07:28:56;;;;;;;11.27;4.35;;;;;;;;;;5070025;28;20049;-71
2021/09/24 07:31:23;;;;;;;10.95;4.38;;;;;;;;;;5061144;28;20425;-71
2021/09/24 07:33:49;;;;;;;12.85;4.22;;;;;;;;;;5071396;28;20048;-71
2021/09/24 07:36:16;;;;;;;14.55;5.25;;;;;;;;;;5069640;28;20098;-72
2021/09/24 07:38:46;;;;;;;14.75;4.72;;;;;;;;;;5083645;28;20383;-72
2021/09/24 07:41:14;;;;;;;11.70;4.85;;;;;;;;;;5066738;28;20067;-72
2021/09/24 07:43:40;;;;;;;12.50;4.90;;;;;;;;;;5070082;28;20106;-72
2021/09/24 07:46:06;;;;;;;10.45;5.13;;;;;;;;;;5063500;28;20098;-72
2021/09/24 07:48:32;;;;;;;12.43;4.93;;;;;;;;;;5072819;28;20147;-72
2021/09/24 07:50:58;;;;;;;12.65;4.93;;;;;;;;;;5065117;28;20041;-72
2021/09/24 07:53:24;;;;;;;14.25;4.88;;;;;;;;;;5053094;28;20139;-70
2021/09/24 07:55:51;;;;;;;11.00;5.10;;;;;;;;;;5064027;28;20420;-71
2021/09/24 07:58:17;;;;;;;10.88;4.93;;;;;;;;;;5074533;28;20045;-70
2021/09/24 08:00:43;;;;;;;7.00;4.72;;;;;;;;;;5052832;28;20048;-70
2021/09/24 08:03:09;;;;;;;15.75;4.50;;;;;;;;;;5069270;28;20045;-70
2021/09/24 08:05:35;;;;;;;9.05;4.57;;;;;;;;;;5069951;28;20036;-70
2021/09/24 08:08:01;;;;;;;8.93;4.50;;;;;;;;;;5054128;28;20040;-71
2021/09/24 08:10:29;;;;;;;9.63;3.90;;;;;;;;;;5068576;28;20441;-71
2021/09/24 08:12:56;;;;;;;13.52;4.50;;;;;;;;;;5049547;28;20062;-70
2021/09/24 08:15:22;;;;;;;10.63;4.30;;;;;;;;;;5055172;28;20041;-71
2021/09/24 08:17:48;;;;;;;11.35;5.10;;;;;;;;;;5068878;28;20035;-71
2021/09/24 08:20:14;;;;;;;16.42;5.03;;;;;;;;;;5077294;28;20052;-71
2021/09/24 08:22:41;;;;;;;11.48;4.75;;;;;;;;;;5065403;28;20079;-70
2021/09/24 08:25:11;;;;;;;11.10;4.00;;;;;;;;;;5062583;28;20098;-70
2021/09/24 08:27:38;;;;;;;11.48;4.80;;;;;;;;;;5051606;28;20056;-70
2021/09/24 08:30:05;;;;;;;10.95;4.80;;;;;;;;;;5069124;28;20040;-70
2021/09/24 08:32:36;;;;;;;10.75;4.25;;;;;;;;;;5065203;28;20036;-71
2021/09/24 08:35:02;;;;;;;12.00;4.22;;;;;;;;;;5071662;28;20053;-71
2021/09/24 08:37:28;;;;;;;10.85;4.30;;;;;;;;;;5066656;28;20051;-71
2021/09/24 08:39:54;;;;;;;10.90;4.63;;;;;;;;;;5063047;28;20052;-71
2021/09/24 08:42:20;;;;;;;10.73;4.47;;;;;;;;;;5048846;28;20105;-71
2021/09/24 08:44:49;;;;;;;11.05;4.32;;;;;;;;;;5073090;28;20058;-71
2021/09/24 08:47:15;;;;;;;12.43;4.25;;;;;;;;;;5073286;28;23417;-71
2021/09/24 08:49:41;;;;;;;13.80;4.38;;;;;;;;;;5052949;28;20083;-70
2021/09/24 08:52:07;;;;;;;11.30;4.97;;;;;;;;;;5068553;28;20496;-70
2021/09/24 08:54:33;;;;;;;10.43;5.32;;;;;;;;;;5055317;28;20041;-71
2021/09/24 08:57:00;;;;;;;16.95;5.93;;;;;;;;;;5069266;28;20036;-71
2021/09/24 08:59:26;;;;;;;10.95;5.05;;;;;;;;;;5068614;28;20036;-71
2021/09/24 09:02:02;;;;;;;9.48;4.97;;;;;;;;;;5074905;28;20546;-71
2021/09/24 09:04:38;;;;;;;9.55;4.85;;;;;;;;;;5067815;28;20040;-70
2021/09/24 09:07:05;;;;;;;11.95;4.90;;;;;;;;;;5076232;28;20060;-70
2021/09/24 09:09:35;;;;;;;12.65;4.63;;;;;;;;;;5052270;28;20040;-70
2021/09/24 09:12:13;;;;;;;21.52;7.03;;;;;;;;;;5071126;28;20040;-70
2021/09/24 09:14:40;;;;;;;16.45;6.47;;;;;;;;;;5072829;28;20036;-70
2021/09/24 09:17:25;;;;;;;12.18;6.60;;;;;;;;;;5075994;28;20123;-71
2021/09/24 09:20:07;;;;;;;10.55;6.05;;;;;;;;;;5067435;28;20036;-71
2021/09/24 09:22:33;;;;;;;15.35;7.60;;;;;;;;;;5076406;28;20040;-71
2021/09/24 09:24:59;;;;;;;12.65;7.68;;;;;;;;;;5066218;28;20048;-71
2021/09/24 09:27:27;;;;;;;14.85;7.65;;;;;;;;;;5071368;28;20460;-71
2021/09/24 09:30:11;;;;;;;11.63;8.23;;;;;;;;;;5067368;28;20052;-71
2021/09/24 09:32:38;;;;;;;14.60;8.60;;;;;;;;;;5071522;28;20083;-71
2021/09/24 09:35:05;;;;;;;11.82;8.10;;;;;;;;;;5075841;28;20031;-71
2021/09/24 09:37:34;;;;;;;13.63;8.63;;;;;;;;;;5078285;28;20037;-71
2021/09/24 09:40:09;;;;;;;14.30;9.05;;;;;;;;;;5066364;28;20058;-71
2021/09/24 09:42:36;;;;;;;15.98;9.02;;;;;;;;;;5070720;28;20040;-71
2021/09/24 09:45:03;;;;;;;10.75;8.55;;;;;;;;;;5067447;28;20051;-71
2021/09/24 09:47:33;;;;;;;16.80;9.80;;;;;;;;;;5070253;28;20044;-71
2021/09/24 09:50:07;;;;;;;35.55;13.88;;;;;;;;;;5050647;28;20055;-72
2021/09/24 09:52:34;;;;;;;20.83;10.65;;;;;;;;;;5070405;28;20557;-72
2021/09/24 09:55:01;;;;;;;13.98;10.00;;;;;;;;;;5069873;28;20079;-72
2021/09/24 09:57:27;;;;;;;14.32;9.73;;;;;;;;;;5072166;28;20036;-72
2021/09/24 09:59:55;;;;;;;14.23;10.23;;;;;;;;;;5065695;28;20045;-72
2021/09/24 10:02:22;;;;;;;18.50;11.25;;;;;;;;;;5071444;28;20154;-72
2021/09/24 10:04:51;;;;;;;19.20;12.15;;;;;;;;;;5072394;28;20043;-72
2021/09/24 10:07:27;;;;;;;17.95;12.55;;;;;;;;;;5066447;28;20450;-72
2021/09/24 10:10:10;;;;;;;17.45;12.63;;;;;;;;;;5071608;28;20051;-72
2021/09/24 10:12:37;;;;;;;22.42;14.63;;;;;;;;;;5054173;28;20059;-72
2021/09/24 10:15:04;;;;;;;20.98;15.23;;;;;;;;;;5076236;28;20119;-72
2021/09/24 10:17:30;;;;;;;18.65;14.32;;;;;;;;;;5067302;28;20082;-72
2021/09/24 10:19:56;;;;;;;24.80;15.13;;;;;;;;;;5071665;28;20396;-72
2021/09/24 10:22:24;;;;;;;22.52;15.15;;;;;;;;;;5064865;28;20062;-72
2021/09/24 10:24:50;;;;;;;20.70;14.98;;;;;;;;;;5073382;28;20050;-71
2021/09/24 10:27:33;;;;;;;21.65;15.20;;;;;;;;;;5066174;28;20061;-71
2021/09/24 10:30:05;;;;;;;22.10;14.68;;;;;;;;;;5085910;28;20170;-71
2021/09/24 10:32:31;;;;;;;23.13;14.80;;;;;;;;;;5050685;28;20052;-71
2021/09/24 10:34:57;;;;;;;19.52;14.25;;;;;;;;;;5072511;28;20028;-71
2021/09/24 10:37:24;;;;;;;19.85;14.48;;;;;;;;;;5068969;28;20037;-71
2021/09/24 10:39:57;;;;;;;17.73;12.98;;;;;;;;;;5077207;28;20404;-71
2021/09/24 10:42:23;;;;;;;20.17;13.57;;;;;;;;;;5069849;28;20051;-71
2021/09/24 10:45:02;;;;;;;20.88;12.45;;;;;;;;;;5072289;28;20113;-71
2021/09/24 10:47:43;;;;;;;21.25;13.15;;;;;;;;;;5066500;28;20093;-71
2021/09/24 10:50:28;;;;;;;22.10;12.95;;;;;;;;;;5078669;28;20083;-71
2021/09/24 10:53:10;;;;;;;18.88;11.18;;;;;;;;;;5072091;28;20064;-71
2021/09/24 10:55:36;;;;;;;16.67;11.98;;;;;;;;;;5075435;28;20036;-71
2021/09/24 10:58:02;;;;;;;17.15;12.10;;;;;;;;;;5064786;28;20125;-71
2021/09/24 11:00:30;;;;;;;21.60;12.35;;;;;;;;;;5069405;28;20085;-71
2021/09/24 11:03:08;;;;;;;23.80;13.38;;;;;;;;;;5064554;28;20056;-71
2021/09/24 11:05:50;;;;;;;24.13;11.80;;;;;;;;;;5070038;28;20059;-71
2021/09/24 11:08:39;;;;;;;23.10;13.70;;;;;;;;;;5070736;28;20043;-71
2021/09/24 11:11:06;;;;;;;19.90;12.93;;;;;;;;;;5079940;28;20110;-71
2021/09/24 11:13:42;;;;;;;17.25;12.38;;;;;;;;;;5069782;28;20052;-71
2021/09/24 11:16:27;;;;;;;17.27;12.52;;;;;;;;;;5070130;28;20052;-71
2021/09/24 11:19:01;;;;;;;18.80;11.40;;;;;;;;;;5065159;28;20040;-71
2021/09/24 11:21:39;;;;;;;17.92;11.27;;;;;;;;;;5052170;28;20536;-71
2021/09/24 11:24:25;;;;;;;17.73;10.68;;;;;;;;;;5064654;28;20091;-71
2021/09/24 11:26:56;;;;;;;18.80;11.23;;;;;;;;;;5069899;28;20071;-65
2021/09/24 11:29:28;;;;;;;17.33;10.93;;;;;;;;;;5066122;28;20044;-65
2021/09/24 11:31:54;;;;;;;16.25;10.50;;;;;;;;;;5073448;28;20040;-65
2021/09/24 11:34:46;;;;;;;13.77;8.98;;;;;;;;;;5066289;28;20045;-65
2021/09/24 11:37:24;;;;;;;14.15;8.90;;;;;;;;;;5071585;28;20111;-65
2021/09/24 11:40:01;;;;;;;18.90;9.45;;;;;;;;;;5070008;28;20044;-66
2021/09/24 11:42:28;;;;;;;15.50;8.20;;;;;;;;;;5071066;28;20488;-66
2021/09/24 11:44:55;;;;;;;14.07;6.65;;;;;;;;;;5066788;28;20081;-66
2021/09/24 11:47:25;;;;;;;11.40;5.55;;;;;;;;;;5070646;28;20032;-66
2021/09/24 11:49:58;;;;;;;8.43;4.45;;;;;;;;;;5065868;28;20032;-66
2021/09/24 11:52:33;;;;;;;9.52;3.85;;;;;;;;;;5074561;28;20501;-66
2021/09/24 11:55:11;;;;;;;7.55;3.90;;;;;;;;;;5066341;28;20179;-66
2021/09/24 11:57:37;;;;;;;9.30;3.22;;;;;;;;;;5070809;28;20214;-66
2021/09/24 12:00:04;;;;;;;5.47;2.63;;;;;;;;;;5068186;28;20110;-66
2021/09/24 12:02:30;;;;;;;5.30;2.83;;;;;;;;;;5069716;28;20101;-66
2021/09/24 12:04:57;;;;;;;5.60;2.50;;;;;;;;;;5078282;28;20040;-67
2021/09/24 12:07:23;;;;;;;4.93;1.90;;;;;;;;;;5081536;28;20044;-67
2021/09/24 12:09:54;;;;;;;5.93;2.50;;;;;;;;;;5070928;28;20368;-67
2021/09/24 12:12:21;;;;;;;5.90;2.53;;;;;;;;;;5079882;28;20123;-66
2021/09/24 12:14:54;;;;;;;5.63;2.53;;;;;;;;;;5070357;28;20518;-66
2021/09/24 12:17:22;;;;;;;6.05;2.15;;;;;;;;;;5076388;28;20485;-67
2021/09/24 12:19:48;;;;;;;6.30;2.70;;;;;;;;;;5074892;28;20040;-66
2021/09/24 12:22:16;;;;;;;6.53;3.10;;;;;;;;;;5065080;28;20045;-67
2021/09/24 12:24:47;;;;;;;8.23;3.20;;;;;;;;;;5070997;28;20041;-67
2021/09/24 12:27:19;;;;;;;7.45;2.78;;;;;;;;;;5064926;28;20138;-66
2021/09/24 12:29:46;;;;;;;6.55;3.05;;;;;;;;;;5074466;28;20044;-66
2021/09/24 12:32:13;;;;;;;7.55;3.20;;;;;;;;;;5071604;28;20042;-72
2021/09/24 12:34:44;;;;;;;6.20;3.13;;;;;;;;;;5072548;28;20135;-71
2021/09/24 12:37:11;;;;;;;6.80;3.60;;;;;;;;;;5071438;28;20054;-71
2021/09/24 12:39:39;;;;;;;7.50;3.60;;;;;;;;;;5081686;28;20090;-71
2021/09/24 12:42:09;;;;;;;7.85;3.55;;;;;;;;;;5068621;28;20425;-71
2021/09/24 12:44:47;;;;;;;8.77;3.90;;;;;;;;;;5085056;28;20135;-71
2021/09/24 12:47:19;;;;;;;8.60;3.83;;;;;;;;;;5065503;28;20085;-72
2021/09/24 12:49:46;;;;;;;6.22;2.78;;;;;;;;;;5072217;28;20098;-72
2021/09/24 12:52:12;;;;;;;5.70;3.05;;;;;;;;;;5073265;28;20108;-72
2021/09/24 12:54:38;;;;;;;6.63;3.42;;;;;;;;;;5069460;28;20515;-72
2021/09/24 12:57:04;;;;;;;6.68;2.80;;;;;;;;;;5072685;28;20243;-72
2021/09/24 12:59:30;;;;;;;6.50;3.45;;;;;;;;;;5081327;28;20040;-72
2021/09/24 13:01:56;;;;;;;5.32;2.80;;;;;;;;;;5081427;28;20055;-72
2021/09/24 13:04:23;;;;;;;8.18;3.58;;;;;;;;;;5082978;28;20064;-72
2021/09/24 13:06:49;;;;;;;6.40;3.25;;;;;;;;;;5073927;28;20095;-72
2021/09/24 13:09:16;;;;;;;7.25;3.13;;;;;;;;;;5057535;28;20084;-72
2021/09/24 13:11:43;;;;;;;8.32;3.35;;;;;;;;;;5070466;28;20123;-72
2021/09/24 13:14:09;;;;;;;8.23;2.83;;;;;;;;;;5067489;28;20683;-72
2021/09/24 13:16:36;;;;;;;7.78;2.70;;;;;;;;;;5072319;28;20498;-72
2021/09/24 13:19:02;;;;;;;4.72;2.85;;;;;;;;;;5073301;28;20047;-72
2021/09/24 13:21:33;;;;;;;5.47;2.40;;;;;;;;;;5084009;28;20444;-72
2021/09/24 13:24:01;;;;;;;7.75;2.47;;;;;;;;;;5069123;28;20059;-73
2021/09/24 13:26:27;;;;;;;6.85;2.40;;;;;;;;;;5073359;28;20144;-74
2021/09/24 13:28:53;;;;;;;6.30;2.10;;;;;;;;;;5068901;28;20375;-73
2021/09/24 13:31:20;;;;;;;5.32;2.20;;;;;;;;;;5059799;28;20077;-73
2021/09/24 13:33:46;;;;;;;6.35;2.10;;;;;;;;;;5070936;28;20071;-73
2021/09/24 13:36:12;;;;;;;4.65;1.85;;;;;;;;;;5071377;28;20443;-73
2021/09/24 13:38:38;;;;;;;3.80;1.90;;;;;;;;;;5066160;28;20120;-73
2021/09/24 13:41:04;;;;;;;7.95;2.50;;;;;;;;;;5077667;28;20059;-73
2021/09/24 13:43:31;;;;;;;5.82;2.50;;;;;;;;;;5066079;28;20043;-73
2021/09/24 13:45:57;;;;;;;6.32;2.10;;;;;;;;;;5057016;28;20088;-73
2021/09/24 13:48:23;;;;;;;5.90;2.30;;;;;;;;;;5080033;28;20155;-73
2021/09/24 13:50:50;;;;;;;8.10;1.92;;;;;;;;;;5066545;28;20052;-73
2021/09/24 13:53:16;;;;;;;4.90;1.95;;;;;;;;;;5070792;28;20051;-73
2021/09/24 13:55:42;;;;;;;5.55;1.85;;;;;;;;;;5071218;28;20047;-73
2021/09/24 13:58:08;;;;;;;5.63;2.00;;;;;;;;;;5070350;28;20052;-73
2021/09/24 14:00:35;;;;;;;4.78;2.08;;;;;;;;;;5063654;28;20508;-72
2021/09/24 14:03:01;;;;;;;4.45;2.15;;;;;;;;;;5054687;28;20456;-72
2021/09/24 14:05:27;;;;;;;6.03;2.20;;;;;;;;;;5068614;28;20066;-72
2021/09/24 14:07:53;;;;;;;5.03;2.22;;;;;;;;;;5071346;28;20044;-73
2021/09/24 14:10:20;;;;;;;5.28;2.20;;;;;;;;;;5051176;28;20097;-73
2021/09/24 14:12:50;;;;;;;5.18;2.65;;;;;;;;;;5072708;28;20055;-73
2021/09/24 14:15:17;;;;;;;5.13;2.22;;;;;;;;;;5054613;28;20044;-74
2021/09/24 14:17:43;;;;;;;5.53;2.30;;;;;;;;;;5075791;28;20068;-73
2021/09/24 14:20:09;;;;;;;4.55;2.45;;;;;;;;;;5073993;28;20369;-73
2021/09/24 14:22:35;;;;;;;4.97;2.33;;;;;;;;;;5073189;28;20492;-73
2021/09/24 14:25:01;;;;;;;5.55;2.58;;;;;;;;;;5066271;28;20562;-73
2021/09/24 14:27:28;;;;;;;6.97;2.42;;;;;;;;;;5072827;28;20077;-73
2021/09/24 14:29:54;;;;;;;5.35;2.42;;;;;;;;;;5078705;28;20047;-66
2021/09/24 14:32:22;;;;;;;5.53;2.20;;;;;;;;;;5071220;28;20048;-66
2021/09/24 14:34:48;;;;;;;4.68;2.08;;;;;;;;;;5074087;28;20049;-66